Dyess Air Force Base
KDYS : rendu visible

Aérodrome :











RETROUVEZ-NOUS SUR...

 
LOGIN :

S'inscrire | Disclaimer

   EN    FR    IT 

 









Légende :    VFR   VFR Marginal   IFR   IFR Intensif   IFR Très Intensif
Visi : 
Plafond : 
>= 8 km
>= 3000ft
5 à 8 km
1000 à 3000 ft
1500m à 5 km
500 à 1000 ft
800 à 1500m
200 à 500 ft
< 800m
< 200 ft
Symboles :   Orages  Brouillard  Fortes neiges  Fortes précipitations  Vent > 20 kt






- Altitude de l'aérodrome : 1789 ft


KDYS - Dyess Air Force Base

DERNIER METAR :
  • 081256Z AUTO 24005KT 10SM CLR 19/13 A2990 RMK AO2 SLP089 T01930128

METARs EXPIRÉS :
  • 081156Z AUTO 23007KT 10SM BKN170 BKN200 21/14 A2987 RMK AO2 SLP075 T02070141 10240 20196 53006
  • 081056Z AUTO 23010KT 10SM SCT180 23/15 A2986 RMK AO2 SLP067 T02270150
  • 080956Z AUTO 22015G20KT 10SM SCT190 24/16 A2985 RMK AO2 SLP062 T02400157

TAF TAF KDYS
Valide du 08 à 08h jusqu'au 09 à 14h UTC


080800Z 0808/0914 21009KT 9999 FEW180 QNH2982INS
BECMG 0814/0815 23012G18KT 9999 FEW110 QNH2977INS
BECMG 0823/0900 VRB06KT 9999 FEW110 QNH2978INS
BECMG 0911/0912 36009KT 9999 BKN160 QNH2985INS TX34/0821Z TN17/0908Z



MET'MAP, la Météo Aéronautique d'un coup d'oeil ! - Copyright ORBIFLY Décembre 2007 - Disclaimer

ORBIFLY MET'MAP TEAM :

Programmation & Développement : Alexandra Zaïnal
Sur une idée originale de : Baudouin d'Aumeries
Assistance à la programmation : Marc-Olivier Méhu
Soutien technique & logistique : Manuel Goepfert

Contact : metmap@orbifly.com




SOURCES & CREDITS :

   NOAA       Earth
Advisory